• °C
  • Pobieranie danych...
wx

PRINT OUT SECTION, show »

METAR EPCE 271430Z VRB01KT 9999 FEW007 BKN036 01/01
Q0995 RMK 014 096 7/1=

METAR EPDA 271430Z 11004KT 9999 BKN048 03/01
Q0995 RMK 030 087 7/7=

METAR EPDE 271430Z 23006KT 9999 OVC020 02/M01 Q0997 RMK 021 078 8/8=

METAR EPIR 271430Z AUTO 16002KT VV015 02/01 Q0995 RMK 019 091 ///=

METAR EPKS 271430Z 12008KT 1500 BR OVC004 01/00 Q0995 RMK 008 095
8/8=

METAR EPLK 271430Z 16005KT 4000 BR OVC005 00/00 Q0996 RMK
001 100 8/8=

METAR EPLY 271430Z 24004KT 4000 BR OVC004 00/M01 Q0996 RMK 003 095
8/8=

METAR EPMB 271430Z 26006KT 9999 BKN040 OVC050 03/02 Q0995 RMK 028 097
8/5=

METAR EPMI 271430Z 12007KT 9999 BKN090 01/M01 Q0994 RMK 013 085 5/5=

METAR EPMM 271430Z 26009KT 230V290 9999 OVC010 01/01 Q0996 RMK 010
100 8/8=

METAR EPNA 271430Z NIL=

METAR EPOK 271430Z 28006KT 5000 BR SCT019 BKN026 OVC052 02/01
Q0995 RMK 020 096 8/4 =

METAR EPPR 271430Z NIL=

METAR EPPW 271430Z VRB02KT 2000 BR OVC004 00/00 Q0995 RMK 002 100
8/8=

METAR EPRA 271430Z 23004KT 9999 BKN017 02/M01 Q0997 RMK 021 082 6/6=

METAR EPSN 271430Z 12008KT 9999 BKN090 01/M01 Q0994 RMK 011 084 5/5=

METAR EPTM 271430Z NIL=
 METAR EPIR
Lokalizacja:EPIR Inowrocław
Czas:14:30 UTC
AUTO:Depesza całkowicie automatyczna, bez udziału obserwatora
Średni kierunek wiatru:160 °
Średnia prędkość wiatru:2 węzłów
Widzialność:0 metrów
Temperatura powietrza:2 °C
Temperatura punktu rosy:1 °C
Ciśnienie QNH:995 hPa
Dokładna temperatura powietrza:1,9 °C
Dokładna wilgotność względna:91 %
Zachmurzenie przez wszystkie piętra chmur://8
Zachmurzenie przez chmury niskie://8



IMGW-PIB Sites